Time;durP1;ratioP1;P1;durP2;ratioP2;P2;SDS_P1;SDS_P2;PMS_P1;PMS_P2;Temp;Humidity;BMP_temperature;BMP_pressure;BME280_temperature;BME280_humidity;BME280_pressure;Samples;Min_cycle;Max_cycle;Signal;HPM_P1;HPM_P2
2021/01/22 00:01:11;;;;;;;47.03;28.63;;;;;;;-0.96;97.04;99639.09;1693590;84;21576;-64
2021/01/22 00:03:39;;;;;;;48.27;28.53;;;;;;;-0.98;97.09;99642.42;1696517;83;21366;-66
2021/01/22 00:06:06;;;;;;;48.37;30.83;;;;;;;-1.02;97.18;99640.31;1688126;84;21990;-67
2021/01/22 00:08:37;;;;;;;45.23;26.60;;;;;;;-1.04;97.37;99640.98;1703305;84;20995;-67
2021/01/22 00:11:05;;;;;;;51.63;28.67;;;;;;;-1.04;97.47;99637.84;1705281;82;21579;-65
2021/01/22 00:13:34;;;;;;;48.80;28.03;;;;;;;-1.00;97.40;99637.80;1691318;84;21194;-65
2021/01/22 00:16:02;;;;;;;55.40;31.93;;;;;;;-0.99;97.35;99624.94;1706159;83;21389;-64
2021/01/22 00:18:30;;;;;;;52.87;29.57;;;;;;;-1.00;97.29;99627.75;1685624;84;21206;-65
2021/01/22 00:20:58;;;;;;;44.07;26.23;;;;;;;-1.00;97.33;99629.06;1687596;83;21115;-64
2021/01/22 00:23:27;;;;;;;49.07;29.20;;;;;;;-1.01;97.27;99625.60;1686689;83;21103;-64
2021/01/22 00:25:55;;;;;;;54.43;30.93;;;;;;;-1.00;97.26;99627.75;1684598;84;21166;-67
2021/01/22 00:28:24;;;;;;;52.33;30.90;;;;;;;-1.07;97.32;99625.02;1673694;84;21225;-66
2021/01/22 00:30:52;;;;;;;41.97;23.40;;;;;;;-1.10;97.41;99615.28;1685541;85;21012;-69
2021/01/22 00:33:19;;;;;;;40.93;26.17;;;;;;;-1.09;97.60;99613.80;1668102;84;21177;-64
2021/01/22 00:35:48;;;;;;;41.77;24.13;;;;;;;-1.10;97.75;99610.01;1667489;86;21236;-65
2021/01/22 00:38:15;;;;;;;50.90;29.50;;;;;;;-1.10;97.80;99609.52;1667572;86;21224;-64
2021/01/22 00:40:43;;;;;;;46.43;29.27;;;;;;;-1.10;97.80;99610.83;1667485;86;21563;-67
2021/01/22 00:43:11;;;;;;;51.27;31.00;;;;;;;-1.07;97.82;99605.71;1669338;84;21148;-65
2021/01/22 00:45:39;;;;;;;44.10;25.57;;;;;;;-1.05;97.87;99605.84;1688956;83;21060;-66
2021/01/22 00:48:07;;;;;;;44.53;26.30;;;;;;;-1.05;97.94;99600.56;1695530;84;21046;-65
2021/01/22 00:50:35;;;;;;;44.60;25.77;;;;;;;-1.10;97.95;99598.13;1695696;84;21196;-67
2021/01/22 00:53:04;;;;;;;32.70;21.27;;;;;;;-1.16;98.17;99593.09;1714232;83;21676;-64
2021/01/22 00:55:32;;;;;;;53.17;30.50;;;;;;;-1.15;98.38;99598.66;1714320;83;21170;-66
2021/01/22 00:58:18;;;;;;;51.57;29.60;;;;;;;-1.16;98.43;99586.99;1714405;83;21143;-66
2021/01/22 01:00:47;;;;;;;43.87;26.37;;;;;;;-1.18;98.62;99589.80;1714300;83;21130;-65
2021/01/22 01:03:28;;;;;;;51.17;29.00;;;;;;;-1.12;98.70;99579.86;1809781;77;26544;-67
2021/01/22 01:05:57;;;;;;;43.93;25.57;;;;;;;-1.16;98.73;99578.58;1765551;80;20979;-67
2021/01/22 01:08:25;;;;;;;45.43;26.63;;;;;;;-1.14;98.87;99579.20;1768861;80;21206;-66
2021/01/22 01:10:54;;;;;;;51.33;29.10;;;;;;;-1.16;98.92;99579.08;1781142;80;21515;-66
2021/01/22 01:13:35;;;;;;;39.83;25.33;;;;;;;-1.19;98.97;99578.91;1780397;80;20955;-66
2021/01/22 01:16:24;;;;;;;49.20;26.43;;;;;;;-1.16;99.15;99576.44;1756399;80;21066;-65
2021/01/22 01:18:52;;;;;;;47.60;29.57;;;;;;;-1.15;99.21;99583.36;1781437;80;20999;-67
2021/01/22 01:21:19;;;;;;;38.30;22.07;;;;;;;-1.12;99.18;99575.08;1779486;80;23016;-66
2021/01/22 01:23:47;;;;;;;53.77;30.97;;;;;;;-1.07;99.18;99572.73;1781389;80;20971;-66
2021/01/22 01:26:14;;;;;;;53.53;31.17;;;;;;;-1.07;99.18;99576.19;1752015;80;21138;-65
2021/01/22 01:28:43;;;;;;;54.50;32.27;;;;;;;-1.11;99.23;99571.45;1750467;82;21599;-65
2021/01/22 01:31:11;;;;;;;45.83;27.50;;;;;;;-1.13;99.40;99579.53;1750431;82;21161;-66
2021/01/22 01:33:39;;;;;;;51.23;29.90;;;;;;;-1.11;99.63;99560.89;1750417;82;21333;-63
2021/01/22 01:36:07;;;;;;;42.03;22.97;;;;;;;-1.16;99.72;99566.70;1755800;80;21181;-62
2021/01/22 01:38:35;;;;;;;59.77;32.80;;;;;;;-1.16;99.92;99555.33;1750419;82;21110;-63
2021/01/22 01:41:03;;;;;;;52.90;30.17;;;;;;;-1.19;99.97;99555.16;1747547;82;21098;-65
2021/01/22 01:43:31;;;;;;;48.97;27.50;;;;;;;-1.17;100.00;99555.83;1742535;82;21563;-64
2021/01/22 01:45:58;;;;;;;51.43;29.50;;;;;;;-1.16;100.00;99544.28;1747859;82;21337;-64
2021/01/22 01:48:25;;;;;;;56.07;31.03;;;;;;;-1.21;100.00;99545.31;1732081;82;21625;-63
2021/01/22 01:50:53;;;;;;;47.77;25.70;;;;;;;-1.20;100.00;99545.60;1692526;83;21571;-64
2021/01/22 01:53:22;;;;;;;56.13;30.73;;;;;;;-1.17;100.00;99537.85;1716422;82;21014;-63
2021/01/22 01:55:51;;;;;;;56.30;31.57;;;;;;;-1.10;100.00;99536.95;1722307;82;21192;-63
2021/01/22 01:58:19;;;;;;;50.80;28.00;;;;;;;-1.10;100.00;99529.03;1750792;82;21367;-64
2021/01/22 02:00:47;;;;;;;52.63;27.80;;;;;;;-1.13;100.00;99539.13;1750370;82;21122;-63
2021/01/22 02:03:15;;;;;;;39.47;19.97;;;;;;;-1.16;100.00;99544.28;1742328;82;21603;-64
2021/01/22 02:05:45;;;;;;;48.60;26.37;;;;;;;-1.18;100.00;99537.52;1695297;83;21172;-64
2021/01/22 02:08:15;;;;;;;55.13;29.13;;;;;;;-1.16;100.00;99525.81;1726821;82;21117;-64
2021/01/22 02:10:43;;;;;;;47.23;28.63;;;;;;;-1.18;100.00;99537.02;1751285;82;21241;-63
2021/01/22 02:13:11;;;;;;;39.03;21.97;;;;;;;-1.17;100.00;99529.44;1751045;82;21590;-64
2021/01/22 02:15:38;;;;;;;49.83;27.37;;;;;;;-1.16;100.00;99534.22;1723283;82;20975;-64
2021/01/22 02:18:07;;;;;;;39.60;22.93;;;;;;;-1.16;100.00;99525.81;1750607;82;21031;-65
2021/01/22 02:21:28;;;;;;;50.67;29.17;;;;;;;-1.16;100.00;99521.03;1723476;82;21137;-64
2021/01/22 02:24:14;;;;;;;47.57;29.70;;;;;;;-1.17;100.00;99519.38;1720816;82;21562;-64
2021/01/22 02:26:58;;;;;;;35.50;21.70;;;;;;;-1.18;100.00;99519.88;1704577;82;21204;-62
2021/01/22 02:29:26;;;;;;;55.77;29.57;;;;;;;-1.16;100.00;99523.17;1698584;82;20994;-63
2021/01/22 02:31:54;;;;;;;51.77;29.60;;;;;;;-1.18;100.00;99521.69;1733835;82;21100;-63
2021/01/22 02:34:26;;;;;;;47.90;26.97;;;;;;;-1.21;100.00;99509.69;1750698;81;21126;-63
2021/01/22 02:36:59;;;;;;;45.53;25.07;;;;;;;-1.18;100.00;99508.00;1730907;82;21380;-62
2021/01/22 02:39:31;;;;;;;55.88;33.23;;;;;;;-1.17;100.00;99497.78;1722496;83;20998;-63
2021/01/22 02:41:59;;;;;;;45.17;26.43;;;;;;;-1.20;100.00;99496.80;1721581;83;21552;-63
2021/01/22 02:44:26;;;;;;;50.50;30.43;;;;;;;-1.20;100.00;99496.00;1735808;82;21060;-62
2021/01/22 02:46:54;;;;;;;52.83;30.43;;;;;;;-1.17;100.00;99498.27;1720984;82;21199;-63
2021/01/22 02:49:22;;;;;;;49.23;26.00;;;;;;;-1.21;100.00;99508.38;1656117;86;21449;-63
2021/01/22 02:51:50;;;;;;;44.10;24.57;;;;;;;-1.20;100.00;99505.23;1720723;83;22052;-64
2021/01/22 02:54:17;;;;;;;49.77;27.97;;;;;;;-1.19;100.00;99505.53;1720804;83;21109;-63
2021/01/22 02:57:12;;;;;;;43.07;26.17;;;;;;;-1.20;100.00;99506.56;1720745;83;21169;-63
2021/01/22 03:00:13;;;;;;;44.87;26.33;;;;;;;-1.18;100.00;99524.33;1723594;82;21126;-64
2021/01/22 03:03:15;;;;;;;54.87;30.97;;;;;;;-1.14;100.00;99513.73;1745975;82;22096;-63
2021/01/22 03:05:43;;;;;;;61.80;32.90;;;;;;;-1.07;100.00;99515.50;1738279;82;21134;-63
2021/01/22 03:08:14;;;;;;;52.97;29.80;;;;;;;-1.09;100.00;99516.66;1715095;83;21610;-63
2021/01/22 03:10:42;;;;;;;40.23;24.20;;;;;;;-1.08;100.00;99515.66;1727876;82;21209;-63
2021/01/22 03:13:10;;;;;;;50.20;28.27;;;;;;;-1.11;100.00;99513.39;1743687;82;21622;-64
2021/01/22 03:15:38;;;;;;;41.53;21.50;;;;;;;-1.08;100.00;99501.16;1714573;82;21868;-63
2021/01/22 03:18:17;;;;;;;48.00;29.47;;;;;;;-1.04;100.00;99505.89;1743170;81;21055;-61
2021/01/22 03:20:49;;;;;;;47.23;25.07;;;;;;;-1.07;100.00;99501.48;1743746;82;21142;-64
2021/01/22 03:23:18;;;;;;;51.70;26.53;;;;;;;-1.05;100.00;99499.46;1744357;82;21067;-63
2021/01/22 03:25:47;;;;;;;46.57;26.73;;;;;;;-1.01;100.00;99500.77;1728988;82;21090;-63
2021/01/22 03:28:15;;;;;;;50.80;32.43;;;;;;;-1.00;100.00;99495.78;1717428;82;21205;-62
2021/01/22 03:30:43;;;;;;;52.50;28.43;;;;;;;-1.06;100.00;99499.16;1700166;84;21177;-65
2021/01/22 03:33:11;;;;;;;43.40;26.83;;;;;;;-1.07;100.00;99489.11;1716010;80;21119;-64
2021/01/22 03:35:39;;;;;;;46.60;25.67;;;;;;;-1.02;100.00;99481.97;1743891;82;21140;-63
2021/01/22 03:38:07;;;;;;;46.60;27.10;;;;;;;-1.02;100.00;99486.75;1744770;82;21137;-64
2021/01/22 03:40:35;;;;;;;43.77;26.97;;;;;;;-1.03;100.00;99477.19;1744894;82;21256;-64
2021/01/22 03:43:03;;;;;;;52.30;24.10;;;;;;;-1.05;100.00;99473.08;1744489;82;21638;-63
2021/01/22 03:45:30;;;;;;;51.90;30.80;;;;;;;-1.03;100.00;99475.05;1729694;82;21169;-63
2021/01/22 03:47:58;;;;;;;47.97;27.10;;;;;;;-1.03;100.00;99475.05;1715544;82;21149;-64
2021/01/22 03:50:26;;;;;;;45.20;28.40;;;;;;;-0.97;100.00;99475.65;1715330;82;21121;-64
2021/01/22 03:52:54;;;;;;;52.80;31.87;;;;;;;-0.94;100.00;99476.59;1715044;83;23612;-62
2021/01/22 03:55:21;;;;;;;39.10;23.90;;;;;;;-0.95;100.00;99477.09;1728260;82;21182;-65
2021/01/22 03:57:49;;;;;;;45.73;24.37;;;;;;;-0.93;100.00;99476.92;1744693;82;21118;-64
2021/01/22 04:00:18;;;;;;;50.67;29.80;;;;;;;-0.93;100.00;99476.92;1743063;82;21114;-64
2021/01/22 04:02:46;;;;;;;49.43;25.70;;;;;;;-0.94;100.00;99486.66;1742002;81;21571;-65
2021/01/22 04:05:13;;;;;;;52.43;29.50;;;;;;;-0.94;100.00;99485.83;1725389;82;22643;-63
2021/01/22 04:07:41;;;;;;;52.60;26.50;;;;;;;-0.97;100.00;99480.92;1707434;83;21131;-63
2021/01/22 04:10:10;;;;;;;48.67;28.87;;;;;;;-0.99;100.00;99481.09;1718295;82;21175;-63
2021/01/22 04:12:38;;;;;;;49.07;25.77;;;;;;;-0.99;100.00;99479.78;1707500;82;21153;-65
2021/01/22 04:15:08;;;;;;;46.73;26.47;;;;;;;-0.98;100.00;99469.55;1717277;82;21126;-65
2021/01/22 04:17:43;;;;;;;45.67;27.33;;;;;;;-0.98;100.00;99470.05;1718877;82;21380;-63
2021/01/22 04:20:13;;;;;;;39.07;22.87;;;;;;;-0.94;100.00;99470.00;1707384;82;21633;-64
2021/01/22 04:22:40;;;;;;;38.37;22.03;;;;;;;-0.92;100.00;99482.52;1707079;84;21149;-64
2021/01/22 04:25:10;;;;;;;44.60;27.43;;;;;;;-0.90;100.00;99472.09;1707076;82;21113;-63
2021/01/22 04:27:39;;;;;;;43.73;23.63;;;;;;;-0.89;100.00;99475.05;1716123;82;21130;-64
2021/01/22 04:30:09;;;;;;;39.23;25.40;;;;;;;-0.90;100.00;99467.31;1721960;83;22371;-65
2021/01/22 04:32:37;;;;;;;44.17;25.97;;;;;;;-0.85;100.00;99470.72;1694861;82;21582;-66
2021/01/22 04:35:07;;;;;;;43.83;27.07;;;;;;;-0.85;100.00;99470.72;1687173;84;22262;-65
2021/01/22 04:37:35;;;;;;;33.53;18.70;;;;;;;-0.83;100.00;99481.93;1709051;82;21172;-64
2021/01/22 04:40:06;;;;;;;49.23;26.57;;;;;;;-0.84;100.00;99470.55;1706969;84;21189;-64
2021/01/22 04:42:40;;;;;;;31.87;19.63;;;;;;;-0.85;100.00;99478.14;1705356;82;22381;-65
2021/01/22 04:45:09;;;;;;;47.87;27.40;;;;;;;-0.83;100.00;99471.38;1728986;82;21000;-64
2021/01/22 04:47:38;;;;;;;44.73;25.50;;;;;;;-0.84;100.00;99473.69;1724713;82;21158;-65
2021/01/22 04:50:09;;;;;;;33.33;20.17;;;;;;;-0.82;100.00;99480.94;1736528;82;20975;-63
2021/01/22 04:52:39;;;;;;;40.45;22.00;;;;;;;-0.79;100.00;99468.68;1732625;82;21011;-64
2021/01/22 04:55:08;;;;;;;48.23;28.93;;;;;;;-0.80;100.00;99458.62;1744895;81;21202;-65
2021/01/22 04:57:40;;;;;;;44.33;23.97;;;;;;;-0.77;100.00;99461.41;1741462;82;21054;-64
2021/01/22 05:02:44;;;;;;;41.60;24.83;;;;;;;-0.73;100.00;99462.68;1731829;82;21577;-63
2021/01/22 05:05:12;;;;;;;35.80;20.07;;;;;;;-0.75;100.00;99468.63;1687418;85;21603;-63
2021/01/22 05:07:40;;;;;;;41.27;25.93;;;;;;;-0.77;100.00;99461.41;1691204;82;21810;-65
2021/01/22 05:10:10;;;;;;;39.20;25.53;;;;;;;-0.78;100.00;99465.05;1723535;82;20995;-65
2021/01/22 05:12:40;;;;;;;45.50;27.37;;;;;;;-0.81;100.00;99460.11;1692340;84;21030;-64
2021/01/22 05:15:20;;;;;;;47.10;27.10;;;;;;;-0.78;100.00;99470.33;1692332;84;21132;-65
2021/01/22 05:18:02;;;;;;;46.97;27.00;;;;;;;-0.78;100.00;99471.64;1692609;82;21144;-61
2021/01/22 05:20:37;;;;;;;48.90;30.17;;;;;;;-0.78;100.00;99476.92;1723415;82;21368;-61
2021/01/22 05:23:07;;;;;;;41.53;24.00;;;;;;;-0.78;100.00;99472.97;1731102;82;21131;-65
2021/01/22 05:26:03;;;;;;;49.63;25.53;;;;;;;-0.75;100.00;99461.53;1703711;82;20955;-64
2021/01/22 05:28:45;;;;;;;39.33;23.30;;;;;;;-0.75;100.00;99460.21;1697352;82;21675;-65
2021/01/22 05:31:18;;;;;;;49.80;30.55;;;;;;;-0.78;100.00;99469.00;1686461;84;21118;-64
2021/01/22 05:33:58;;;;;;;55.00;28.45;;;;;;;-0.76;100.00;99462.53;1702314;84;22299;-64
2021/01/22 05:36:30;;;;;;;39.63;22.67;;;;;;;-0.70;100.00;99467.08;1702016;84;20976;-64
2021/01/22 05:39:02;;;;;;;51.40;31.47;;;;;;;-0.70;100.00;99488.20;1724720;82;21020;-75
2021/01/22 05:41:29;;;;;;;49.30;28.67;;;;;;;-0.70;100.00;99476.83;1732132;82;21138;-66
2021/01/22 05:43:57;;;;;;;37.93;20.93;;;;;;;-0.69;100.00;99478.47;1731301;82;21128;-64
2021/01/22 05:46:27;;;;;;;47.97;26.67;;;;;;;-0.68;100.00;99473.52;1726872;82;21615;-64
2021/01/22 05:49:14;;;;;;;44.57;25.90;;;;;;;-0.65;100.00;99479.73;1718758;82;21556;-64
2021/01/22 05:51:42;;;;;;;38.63;23.27;;;;;;;-0.59;100.00;99473.73;1731534;82;21650;-64
2021/01/22 05:54:10;;;;;;;53.17;31.17;;;;;;;-0.60;100.00;99475.55;1689427;82;21173;-66
2021/01/22 05:56:38;;;;;;;51.97;31.43;;;;;;;-0.60;100.00;99469.45;1689475;82;21107;-65
2021/01/22 05:59:14;;;;;;;44.20;29.50;;;;;;;-0.62;100.00;99467.48;1667777;84;21398;-65
2021/01/22 06:01:42;;;;;;;46.97;24.37;;;;;;;-0.63;100.00;99464.55;1702230;84;21095;-64
2021/01/22 06:04:10;;;;;;;44.40;30.30;;;;;;;-0.58;100.00;99470.09;1702047;83;21134;-66
2021/01/22 06:06:38;;;;;;;46.10;24.87;;;;;;;-0.56;100.00;99462.79;1698476;82;21140;-63
2021/01/22 06:09:07;;;;;;;45.17;28.17;;;;;;;-0.52;100.00;99470.16;1699031;82;21154;-63
2021/01/22 06:11:39;;;;;;;49.70;33.13;;;;;;;-0.56;100.00;99470.22;1702343;84;22263;-65
2021/01/22 06:14:08;;;;;;;57.63;31.70;;;;;;;-0.54;100.00;99472.19;1702090;84;21607;-63
2021/01/22 06:16:36;;;;;;;55.10;33.70;;;;;;;-0.49;100.00;99466.34;1695287;82;21178;-63
2021/01/22 06:19:09;;;;;;;54.57;31.17;;;;;;;-0.44;100.00;99475.86;1711119;82;21129;-63
2021/01/22 06:21:50;;;;;;;48.87;28.77;;;;;;;-0.40;100.00;99473.66;1716044;82;21620;-65
2021/01/22 06:24:17;;;;;;;44.23;24.73;;;;;;;-0.43;100.00;99470.87;1702263;84;21419;-63
2021/01/22 06:26:45;;;;;;;53.07;30.57;;;;;;;-0.39;100.00;99470.84;1702539;83;21591;-62
2021/01/22 06:29:12;;;;;;;48.20;27.23;;;;;;;-0.38;100.00;99473.78;1702332;84;21162;-62
2021/01/22 06:31:42;;;;;;;52.10;31.93;;;;;;;-0.32;100.00;99474.37;1700930;82;21209;-63
2021/01/22 06:34:10;;;;;;;43.93;25.37;;;;;;;-0.27;100.00;99476.45;1693898;84;21149;-63
2021/01/22 06:36:39;;;;;;;45.57;25.10;;;;;;;-0.15;100.00;99462.59;1679870;84;21301;-63
2021/01/22 06:39:06;;;;;;;35.90;22.63;;;;;;;-0.07;100.00;99464.29;1707107;84;21221;-63
2021/01/22 06:41:34;;;;;;;49.63;26.57;;;;;;;-0.05;100.00;99453.83;1714880;82;21039;-65
2021/01/22 06:44:01;;;;;;;45.23;26.80;;;;;;;-0.12;100.00;99451.63;1736492;82;21605;-62
2021/01/22 06:46:31;;;;;;;45.97;26.60;;;;;;;-0.18;100.00;99461.63;1736640;82;21149;-65
2021/01/22 06:49:02;;;;;;;48.10;23.27;;;;;;;-0.22;100.00;99462.19;1736698;82;22246;-63
2021/01/22 06:51:34;;;;;;;51.02;30.60;;;;;;;-0.26;100.00;99471.49;1735605;82;21146;-66
2021/01/22 06:54:20;;;;;;;43.27;25.87;;;;;;;-0.19;100.00;99471.88;1696272;82;21100;-62
2021/01/22 06:56:53;;;;;;;47.67;27.07;;;;;;;-0.12;100.00;99461.39;1687448;85;21602;-63
2021/01/22 06:59:29;;;;;;;54.08;32.17;;;;;;;-0.14;100.00;99469.48;1692515;84;21165;-63
2021/01/22 07:01:58;;;;;;;53.43;33.80;;;;;;;-0.09;100.00;99470.25;1727048;82;21163;-65
2021/01/22 07:04:38;;;;;;;38.10;19.97;;;;;;;-0.04;100.00;99467.87;1744372;81;21217;-63
2021/01/22 07:07:09;;;;;;;49.63;26.87;;;;;;;0.02;100.00;99475.05;1750595;82;21200;-65
2021/01/22 07:09:49;;;;;;;43.90;25.40;;;;;;;-0.05;100.00;99462.29;1750694;82;21995;-63
2021/01/22 07:12:20;;;;;;;51.47;28.97;;;;;;;-0.07;100.00;99469.58;1751056;82;21078;-76
2021/01/22 07:14:50;;;;;;;44.57;26.87;;;;;;;-0.07;100.00;99466.93;1738464;82;21225;-62
2021/01/22 07:17:24;;;;;;;49.70;27.83;;;;;;;-0.12;100.00;99455.60;1750678;82;21062;-63
2021/01/22 07:20:05;;;;;;;47.03;24.57;;;;;;;-0.06;100.00;99463.29;1749557;82;21133;-64
2021/01/22 07:22:34;;;;;;;49.63;28.23;;;;;;;0.00;100.00;99463.34;1716156;83;21177;-64
2021/01/22 07:25:04;;;;;;;51.70;32.20;;;;;;;-0.01;100.00;99452.48;1720731;83;21149;-64
2021/01/22 07:27:40;;;;;;;55.57;31.30;;;;;;;-0.07;100.00;99453.72;1720781;83;21018;-67
2021/01/22 07:30:15;;;;;;;56.03;32.57;;;;;;;-0.10;100.00;99454.10;1733434;82;20995;-63
2021/01/22 07:32:45;;;;;;;52.17;31.10;;;;;;;-0.10;100.00;99455.42;1750629;80;21571;-65
2021/01/22 07:35:24;;;;;;;41.43;23.20;;;;;;;-0.04;100.00;99453.33;1750509;82;21118;-64
2021/01/22 07:37:51;;;;;;;48.00;23.07;;;;;;;-0.07;100.00;99450.58;1750370;81;21641;-63
2021/01/22 07:40:19;;;;;;;41.57;20.90;;;;;;;-0.09;100.00;99456.53;1721837;82;21153;-63
2021/01/22 07:42:47;;;;;;;58.93;32.20;;;;;;;-0.03;100.00;99458.94;1749932;82;21006;-63
2021/01/22 07:45:17;;;;;;;51.67;29.00;;;;;;;-0.02;100.00;99460.08;1750553;82;21133;-67
2021/01/22 07:47:47;;;;;;;55.00;30.83;;;;;;;0.00;100.00;99459.91;1750657;82;21094;-65
2021/01/22 07:50:21;;;;;;;50.63;30.70;;;;;;;-0.01;100.00;99459.08;1750316;82;21097;-64
2021/01/22 07:52:49;;;;;;;45.77;27.33;;;;;;;0.01;100.00;99456.23;1748422;82;21218;-66
2021/01/22 07:55:21;;;;;;;52.10;30.33;;;;;;;0.06;100.00;99458.31;1750919;82;21776;-64
2021/01/22 07:58:03;;;;;;;40.80;24.47;;;;;;;0.07;100.00;99450.70;1751706;82;21102;-65
2021/01/22 08:00:40;;;;;;;41.57;24.87;;;;;;;0.11;100.00;99458.56;1749692;82;21633;-65
2021/01/22 08:03:09;;;;;;;54.37;32.10;;;;;;;0.12;100.00;99461.53;1720821;82;21546;-63
2021/01/22 08:05:38;;;;;;;51.17;30.67;;;;;;;0.16;100.00;99465.44;1708241;83;21370;-65
2021/01/22 08:08:23;;;;;;;48.20;30.00;;;;;;;0.18;100.00;99464.75;1707111;84;21623;-65
2021/01/22 08:10:51;;;;;;;57.40;32.00;;;;;;;0.24;100.00;99466.12;1708856;82;21205;-64
2021/01/22 08:13:18;;;;;;;47.47;30.30;;;;;;;0.29;100.00;99462.91;1736492;82;21178;-63
2021/01/22 08:15:46;;;;;;;49.93;31.30;;;;;;;0.35;100.00;99452.90;1736568;82;21122;-65
2021/01/22 08:18:14;;;;;;;43.80;26.30;;;;;;;0.37;100.00;99468.91;1715395;82;21210;-64
2021/01/22 08:20:51;;;;;;;46.00;27.43;;;;;;;0.40;100.00;99463.73;1708783;83;21058;-66
2021/01/22 08:23:21;;;;;;;47.30;26.77;;;;;;;0.40;100.00;99467.70;1707090;84;21059;-64
2021/01/22 08:25:49;;;;;;;60.63;34.23;;;;;;;0.43;100.00;99461.52;1707046;84;21129;-65
2021/01/22 08:28:16;;;;;;;50.50;26.53;;;;;;;0.40;100.00;99455.30;1707081;83;21118;-65
2021/01/22 08:30:44;;;;;;;49.67;31.40;;;;;;;0.42;100.00;99452.47;1670381;81;21230;-62
2021/01/22 08:33:11;;;;;;;51.20;29.83;;;;;;;0.49;100.00;99447.22;1736440;82;22238;-65
2021/01/22 08:35:39;;;;;;;50.77;27.03;;;;;;;0.55;100.00;99446.45;1736551;82;21122;-63
2021/01/22 08:38:07;;;;;;;45.47;28.20;;;;;;;0.53;100.00;99451.94;1715792;82;21603;-65
2021/01/22 08:40:44;;;;;;;63.17;36.07;;;;;;;0.52;99.93;99454.79;1700856;82;21150;-64
2021/01/22 08:43:15;;;;;;;54.87;32.57;;;;;;;0.55;99.98;99457.04;1736667;82;21388;-61
2021/01/22 08:46:06;;;;;;;57.43;34.83;;;;;;;0.57;99.72;99447.09;1736619;82;21185;-63
2021/01/22 08:48:34;;;;;;;47.63;30.83;;;;;;;0.63;99.76;99444.98;1690287;82;21508;-66
2021/01/22 08:51:02;;;;;;;45.77;28.37;;;;;;;0.66;99.56;99445.95;1696206;84;21153;-64
2021/01/22 08:53:30;;;;;;;47.87;31.03;;;;;;;0.64;99.31;99446.13;1696765;84;21225;-65
2021/01/22 08:56:13;;;;;;;48.47;30.00;;;;;;;0.66;99.12;99443.30;1667528;84;21042;-65
2021/01/22 08:59:01;;;;;;;48.07;31.83;;;;;;;0.70;99.17;99444.05;1696286;84;21229;-64
2021/01/22 09:01:49;;;;;;;47.30;32.17;;;;;;;0.76;99.11;99443.78;1682904;84;21141;-69
2021/01/22 09:04:33;;;;;;;55.60;34.57;;;;;;;0.84;99.03;99439.66;1668420;84;21200;-64
2021/01/22 09:07:06;;;;;;;48.95;30.08;;;;;;;0.84;98.36;99440.98;1668829;86;21160;-65
2021/01/22 09:09:47;;;;;;;51.23;28.47;;;;;;;0.85;98.41;99432.86;1682400;84;21190;-67
2021/01/22 09:12:22;;;;;;;38.70;24.33;;;;;;;0.83;97.98;99428.75;1696779;84;21249;-64
2021/01/22 09:14:57;;;;;;;44.93;28.60;;;;;;;0.79;97.87;99432.30;1696865;84;21577;-65
2021/01/22 09:17:30;;;;;;;48.90;31.03;;;;;;;0.77;97.73;99421.58;1696523;84;21669;-64
2021/01/22 09:19:59;;;;;;;44.13;28.37;;;;;;;0.77;97.77;99422.40;1679631;84;21212;-64
2021/01/22 09:22:30;;;;;;;44.10;27.17;;;;;;;0.75;97.74;99419.14;1668687;84;21291;-65
2021/01/22 09:25:04;;;;;;;47.07;27.60;;;;;;;0.73;97.77;99423.80;1669279;84;21181;-65
2021/01/22 09:27:38;;;;;;;42.20;27.53;;;;;;;0.75;97.90;99421.79;1669514;86;21038;-65
2021/01/22 09:30:11;;;;;;;39.95;25.60;;;;;;;0.80;97.96;99424.67;1687723;84;21058;-65
2021/01/22 09:32:40;;;;;;;51.00;30.95;;;;;;;0.84;97.78;99410.03;1697177;84;21177;-65
2021/01/22 09:35:10;;;;;;;53.47;30.47;;;;;;;0.87;97.56;99403.52;1697058;84;21213;-65
2021/01/22 09:37:39;;;;;;;48.70;33.43;;;;;;;0.83;97.01;99403.10;1696923;84;21189;-66
2021/01/22 09:40:08;;;;;;;49.83;27.47;;;;;;;0.81;97.08;99412.27;1696092;84;21169;-65
2021/01/22 09:42:36;;;;;;;30.17;19.23;;;;;;;0.82;97.11;99409.40;1697005;84;21508;-63
2021/01/22 09:45:07;;;;;;;49.53;26.03;;;;;;;0.83;97.11;99404.93;1696932;84;21201;-65
2021/01/22 09:47:34;;;;;;;50.00;30.73;;;;;;;0.83;96.93;99396.48;1696981;84;21550;-66
2021/01/22 09:50:06;;;;;;;48.60;30.23;;;;;;;0.83;96.91;99395.16;1675412;84;21213;-66
2021/01/22 09:52:36;;;;;;;42.47;28.57;;;;;;;0.86;96.97;99398.73;1667432;86;21185;-65
2021/01/22 09:55:06;;;;;;;42.13;26.47;;;;;;;0.91;96.91;99403.47;1673808;84;21092;-67
2021/01/22 09:57:33;;;;;;;41.47;24.20;;;;;;;0.92;96.73;99393.67;1697334;84;21161;-67
2021/01/22 10:00:00;;;;;;;44.67;28.17;;;;;;;0.97;96.66;99388.11;1696796;84;22156;-65
2021/01/22 10:02:30;;;;;;;31.97;21.03;;;;;;;1.04;96.45;99382.36;1696781;84;21192;-64
2021/01/22 10:04:57;;;;;;;39.70;23.80;;;;;;;1.05;95.83;99385.32;1694844;83;21622;-65
2021/01/22 10:07:25;;;;;;;44.23;29.03;;;;;;;1.15;96.04;99382.31;1674046;84;21236;-65
2021/01/22 10:09:52;;;;;;;30.50;19.50;;;;;;;1.26;95.96;99383.05;1673932;85;21569;-66
2021/01/22 10:12:21;;;;;;;42.47;27.03;;;;;;;1.28;94.85;99381.86;1674713;85;21624;-65
2021/01/22 10:14:48;;;;;;;43.87;29.57;;;;;;;1.32;94.90;99376.98;1676105;84;21641;-65
2021/01/22 10:17:16;;;;;;;51.10;29.53;;;;;;;1.43;94.93;99370.30;1694308;84;21145;-68
2021/01/22 10:19:44;;;;;;;51.63;32.77;;;;;;;1.50;94.30;99374.59;1687888;84;21224;-67
2021/01/22 10:22:13;;;;;;;56.70;34.73;;;;;;;1.50;93.60;99369.80;1687799;84;21188;-66
2021/01/22 10:24:42;;;;;;;48.10;30.53;;;;;;;1.47;93.45;99367.55;1702032;84;21281;-67
2021/01/22 10:27:10;;;;;;;45.33;28.50;;;;;;;1.49;93.49;99364.18;1695934;84;21154;-67
2021/01/22 10:29:37;;;;;;;49.23;30.13;;;;;;;1.51;93.23;99360.33;1680993;84;21122;-69
2021/01/22 10:32:05;;;;;;;46.00;28.87;;;;;;;1.46;92.78;99363.27;1702058;82;21169;-67
2021/01/22 10:34:32;;;;;;;48.23;31.03;;;;;;;1.44;92.85;99357.37;1702076;84;21251;-67
2021/01/22 10:37:00;;;;;;;37.43;22.67;;;;;;;1.42;92.87;99353.58;1695796;84;21215;-70
2021/01/22 10:39:29;;;;;;;38.77;25.97;;;;;;;1.43;92.91;99347.77;1688147;84;21164;-69
2021/01/22 10:41:57;;;;;;;47.10;29.13;;;;;;;1.44;92.95;99343.58;1674332;84;21608;-68
2021/01/22 10:44:24;;;;;;;43.10;30.57;;;;;;;1.48;92.73;99342.19;1676593;84;21196;-65
2021/01/22 10:46:52;;;;;;;40.73;27.30;;;;;;;1.51;92.77;99339.13;1684733;84;21816;-66
2021/01/22 10:49:20;;;;;;;46.53;27.43;;;;;;;1.61;92.56;99339.56;1673837;85;21540;-67
2021/01/22 10:51:47;;;;;;;39.53;25.60;;;;;;;1.64;92.16;99334.36;1674734;84;21796;-67
2021/01/22 10:54:15;;;;;;;44.47;28.60;;;;;;;1.66;91.90;99333.66;1680168;84;21050;-67
2021/01/22 10:56:42;;;;;;;40.60;29.40;;;;;;;1.69;91.92;99327.95;1702563;84;21609;-67
2021/01/22 10:59:10;;;;;;;47.07;30.30;;;;;;;1.75;91.73;99327.97;1702826;84;21125;-69
2021/01/22 11:01:37;;;;;;;45.73;28.77;;;;;;;1.76;91.17;99322.16;1687252;84;21153;-70
2021/01/22 11:04:05;;;;;;;48.63;29.87;;;;;;;1.81;91.42;99322.87;1685476;84;21181;-65
2021/01/22 11:06:35;;;;;;;42.70;27.03;;;;;;;1.87;91.10;99317.56;1676339;84;21251;-67
2021/01/22 11:09:03;;;;;;;41.43;29.67;;;;;;;1.93;90.50;99311.96;1668707;84;21614;-67
2021/01/22 11:11:31;;;;;;;45.17;28.77;;;;;;;1.92;90.22;99313.80;1678378;84;21193;-66
2021/01/22 11:13:58;;;;;;;44.73;29.70;;;;;;;1.94;90.01;99299.84;1689240;84;21212;-67
2021/01/22 11:16:25;;;;;;;41.10;26.97;;;;;;;1.95;89.88;99298.00;1672615;84;21070;-66
2021/01/22 11:18:53;;;;;;;39.23;26.40;;;;;;;2.02;89.89;99293.50;1692527;84;21179;-66
2021/01/22 11:21:21;;;;;;;41.05;26.10;;;;;;;2.05;89.61;99292.60;1696844;84;21196;-67
2021/01/22 11:23:49;;;;;;;39.10;27.30;;;;;;;2.14;89.62;99294.53;1687619;84;21639;-67
2021/01/22 11:26:17;;;;;;;46.85;25.30;;;;;;;2.21;88.97;99288.69;1693864;84;22600;-67
2021/01/22 11:28:45;;;;;;;35.88;23.67;;;;;;;2.21;88.39;99285.25;1694822;84;21645;-67
2021/01/22 11:31:13;;;;;;;44.05;24.70;;;;;;;2.24;88.19;99284.83;1685692;82;21160;-71
2021/01/22 11:33:40;;;;;;;40.43;27.30;;;;;;;2.27;88.13;99288.38;1691672;84;21058;-67